sensor_id;sensor_type;location;lat;lon;timestamp;P1;durP1;ratioP1;P2;durP2;ratioP2
703;SDS011;335;48.694;9.120;2022-10-17T00:01:48;2.67;;;2.20;;
703;SDS011;335;48.694;9.120;2022-10-17T00:04:14;4.20;;;2.40;;
703;SDS011;335;48.694;9.120;2022-10-17T00:06:39;3.00;;;2.07;;
703;SDS011;335;48.694;9.120;2022-10-17T00:09:05;4.63;;;2.30;;
703;SDS011;335;48.694;9.120;2022-10-17T00:11:30;2.47;;;2.27;;
703;SDS011;335;48.694;9.120;2022-10-17T00:13:56;9.97;;;2.80;;
703;SDS011;335;48.694;9.120;2022-10-17T00:18:50;2.20;;;1.80;;
703;SDS011;335;48.694;9.120;2022-10-17T00:21:16;2.30;;;2.20;;
703;SDS011;335;48.694;9.120;2022-10-17T00:23:42;2.20;;;2.10;;
703;SDS011;335;48.694;9.120;2022-10-17T00:26:08;3.30;;;2.00;;
703;SDS011;335;48.694;9.120;2022-10-17T00:28:34;2.90;;;2.70;;
703;SDS011;335;48.694;9.120;2022-10-17T00:31:01;3.87;;;2.07;;
703;SDS011;335;48.694;9.120;2022-10-17T00:33:28;2.40;;;2.20;;
703;SDS011;335;48.694;9.120;2022-10-17T00:36:17;4.83;;;1.90;;
703;SDS011;335;48.694;9.120;2022-10-17T00:38:45;3.80;;;2.37;;
703;SDS011;335;48.694;9.120;2022-10-17T00:41:12;2.60;;;2.30;;
703;SDS011;335;48.694;9.120;2022-10-17T00:43:50;3.83;;;2.17;;
703;SDS011;335;48.694;9.120;2022-10-17T00:46:24;2.60;;;2.23;;
703;SDS011;335;48.694;9.120;2022-10-17T00:48:53;2.60;;;2.27;;
703;SDS011;335;48.694;9.120;2022-10-17T00:51:20;3.00;;;2.80;;
703;SDS011;335;48.694;9.120;2022-10-17T00:53:49;2.93;;;2.20;;
703;SDS011;335;48.694;9.120;2022-10-17T00:56:15;2.40;;;2.27;;
703;SDS011;335;48.694;9.120;2022-10-17T00:58:42;2.50;;;2.30;;
703;SDS011;335;48.694;9.120;2022-10-17T01:01:08;2.40;;;2.17;;
703;SDS011;335;48.694;9.120;2022-10-17T01:03:33;2.63;;;2.27;;
703;SDS011;335;48.694;9.120;2022-10-17T01:05:58;2.70;;;2.30;;
703;SDS011;335;48.694;9.120;2022-10-17T01:08:24;2.30;;;2.20;;
703;SDS011;335;48.694;9.120;2022-10-17T01:11:01;2.93;;;2.67;;
703;SDS011;335;48.694;9.120;2022-10-17T01:13:36;2.63;;;2.37;;
703;SDS011;335;48.694;9.120;2022-10-17T01:16:10;2.40;;;2.30;;
703;SDS011;335;48.694;9.120;2022-10-17T01:21:37;2.60;;;2.40;;
703;SDS011;335;48.694;9.120;2022-10-17T01:32:07;2.90;;;2.80;;
703;SDS011;335;48.694;9.120;2022-10-17T01:34:47;4.07;;;2.73;;
703;SDS011;335;48.694;9.120;2022-10-17T01:37:26;2.30;;;2.20;;
703;SDS011;335;48.694;9.120;2022-10-17T01:43:04;2.80;;;2.60;;
703;SDS011;335;48.694;9.120;2022-10-17T01:48:03;2.17;;;2.07;;
703;SDS011;335;48.694;9.120;2022-10-17T01:50:32;4.47;;;2.70;;
703;SDS011;335;48.694;9.120;2022-10-17T01:53:01;2.30;;;2.20;;
703;SDS011;335;48.694;9.120;2022-10-17T01:55:31;3.07;;;2.87;;
703;SDS011;335;48.694;9.120;2022-10-17T01:58:00;3.63;;;2.70;;
703;SDS011;335;48.694;9.120;2022-10-17T02:00:29;3.40;;;1.97;;
703;SDS011;335;48.694;9.120;2022-10-17T02:02:57;2.97;;;2.77;;
703;SDS011;335;48.694;9.120;2022-10-17T02:05:25;2.70;;;2.50;;
703;SDS011;335;48.694;9.120;2022-10-17T02:07:53;3.20;;;3.00;;
703;SDS011;335;48.694;9.120;2022-10-17T02:10:29;3.10;;;2.80;;
703;SDS011;335;48.694;9.120;2022-10-17T02:13:23;3.13;;;2.57;;
703;SDS011;335;48.694;9.120;2022-10-17T02:21:27;3.83;;;3.10;;
703;SDS011;335;48.694;9.120;2022-10-17T02:24:01;3.20;;;2.27;;
703;SDS011;335;48.694;9.120;2022-10-17T02:26:32;2.77;;;2.57;;
703;SDS011;335;48.694;9.120;2022-10-17T02:29:03;2.80;;;2.60;;
703;SDS011;335;48.694;9.120;2022-10-17T02:31:53;2.87;;;2.40;;
703;SDS011;335;48.694;9.120;2022-10-17T02:34:38;2.43;;;2.30;;
703;SDS011;335;48.694;9.120;2022-10-17T02:37:06;3.20;;;2.83;;
703;SDS011;335;48.694;9.120;2022-10-17T02:39:32;3.30;;;3.00;;
703;SDS011;335;48.694;9.120;2022-10-17T02:41:59;2.73;;;2.63;;
703;SDS011;335;48.694;9.120;2022-10-17T02:44:26;3.53;;;3.07;;
703;SDS011;335;48.694;9.120;2022-10-17T02:46:53;2.87;;;2.57;;
703;SDS011;335;48.694;9.120;2022-10-17T02:49:26;2.40;;;2.30;;
703;SDS011;335;48.694;9.120;2022-10-17T02:54:53;2.53;;;2.43;;
703;SDS011;335;48.694;9.120;2022-10-17T02:57:27;3.83;;;3.43;;
703;SDS011;335;48.694;9.120;2022-10-17T02:59:56;3.50;;;3.10;;
703;SDS011;335;48.694;9.120;2022-10-17T03:02:22;6.20;;;3.00;;
703;SDS011;335;48.694;9.120;2022-10-17T03:04:47;2.80;;;2.60;;
703;SDS011;335;48.694;9.120;2022-10-17T03:07:13;2.63;;;2.43;;
703;SDS011;335;48.694;9.120;2022-10-17T03:09:38;3.13;;;2.60;;
703;SDS011;335;48.694;9.120;2022-10-17T03:12:04;5.73;;;3.40;;
703;SDS011;335;48.694;9.120;2022-10-17T03:14:29;4.80;;;2.90;;
703;SDS011;335;48.694;9.120;2022-10-17T03:16:54;2.67;;;2.47;;
703;SDS011;335;48.694;9.120;2022-10-17T03:19:20;2.97;;;2.50;;
703;SDS011;335;48.694;9.120;2022-10-17T03:21:45;4.30;;;2.77;;
703;SDS011;335;48.694;9.120;2022-10-17T03:24:10;4.57;;;2.40;;
703;SDS011;335;48.694;9.120;2022-10-17T03:26:36;6.13;;;2.90;;
703;SDS011;335;48.694;9.120;2022-10-17T03:29:01;4.27;;;2.50;;
703;SDS011;335;48.694;9.120;2022-10-17T03:31:27;5.03;;;2.77;;
703;SDS011;335;48.694;9.120;2022-10-17T03:33:52;2.50;;;2.17;;
703;SDS011;335;48.694;9.120;2022-10-17T03:36:18;2.43;;;2.23;;
703;SDS011;335;48.694;9.120;2022-10-17T03:38:43;2.33;;;2.13;;
703;SDS011;335;48.694;9.120;2022-10-17T03:41:09;3.53;;;2.60;;
703;SDS011;335;48.694;9.120;2022-10-17T03:43:35;2.73;;;2.50;;
703;SDS011;335;48.694;9.120;2022-10-17T03:46:01;3.13;;;2.70;;
703;SDS011;335;48.694;9.120;2022-10-17T03:48:27;3.00;;;2.63;;
703;SDS011;335;48.694;9.120;2022-10-17T03:50:57;2.70;;;2.47;;
703;SDS011;335;48.694;9.120;2022-10-17T03:53:27;3.43;;;3.20;;
703;SDS011;335;48.694;9.120;2022-10-17T03:55:53;5.13;;;2.70;;
703;SDS011;335;48.694;9.120;2022-10-17T03:58:18;2.90;;;2.67;;
703;SDS011;335;48.694;9.120;2022-10-17T04:00:44;5.00;;;3.40;;
703;SDS011;335;48.694;9.120;2022-10-17T04:03:09;3.13;;;2.80;;
703;SDS011;335;48.694;9.120;2022-10-17T04:05:34;3.10;;;2.90;;
703;SDS011;335;48.694;9.120;2022-10-17T04:08:00;3.00;;;2.80;;
703;SDS011;335;48.694;9.120;2022-10-17T04:10:25;3.40;;;3.10;;
703;SDS011;335;48.694;9.120;2022-10-17T04:12:50;3.60;;;3.30;;
703;SDS011;335;48.694;9.120;2022-10-17T04:15:16;4.87;;;2.70;;
703;SDS011;335;48.694;9.120;2022-10-17T04:17:41;4.60;;;3.10;;
703;SDS011;335;48.694;9.120;2022-10-17T04:20:06;6.83;;;3.47;;
703;SDS011;335;48.694;9.120;2022-10-17T04:22:32;4.87;;;3.43;;
703;SDS011;335;48.694;9.120;2022-10-17T04:24:57;5.60;;;2.83;;
703;SDS011;335;48.694;9.120;2022-10-17T04:27:23;3.30;;;3.10;;
703;SDS011;335;48.694;9.120;2022-10-17T04:29:48;3.17;;;2.90;;
703;SDS011;335;48.694;9.120;2022-10-17T04:32:13;4.03;;;3.13;;
703;SDS011;335;48.694;9.120;2022-10-17T04:34:39;3.00;;;2.80;;
703;SDS011;335;48.694;9.120;2022-10-17T04:37:04;5.57;;;4.00;;
703;SDS011;335;48.694;9.120;2022-10-17T04:39:30;5.47;;;4.83;;
703;SDS011;335;48.694;9.120;2022-10-17T04:41:55;9.80;;;7.50;;
703;SDS011;335;48.694;9.120;2022-10-17T04:44:20;10.60;;;7.90;;
703;SDS011;335;48.694;9.120;2022-10-17T04:46:46;11.03;;;8.53;;
703;SDS011;335;48.694;9.120;2022-10-17T04:49:11;10.60;;;9.17;;
703;SDS011;335;48.694;9.120;2022-10-17T04:51:37;9.47;;;8.43;;
703;SDS011;335;48.694;9.120;2022-10-17T04:54:02;8.53;;;7.00;;
703;SDS011;335;48.694;9.120;2022-10-17T04:56:27;5.93;;;5.50;;
703;SDS011;335;48.694;9.120;2022-10-17T04:58:53;4.87;;;4.40;;
703;SDS011;335;48.694;9.120;2022-10-17T05:01:19;5.47;;;4.50;;
703;SDS011;335;48.694;9.120;2022-10-17T05:03:46;4.40;;;4.00;;
703;SDS011;335;48.694;9.120;2022-10-17T05:06:13;9.40;;;4.93;;
703;SDS011;335;48.694;9.120;2022-10-17T05:08:40;3.40;;;3.20;;
703;SDS011;335;48.694;9.120;2022-10-17T05:11:05;4.43;;;2.70;;
703;SDS011;335;48.694;9.120;2022-10-17T05:13:40;3.47;;;3.17;;
703;SDS011;335;48.694;9.120;2022-10-17T05:16:05;3.27;;;3.00;;
703;SDS011;335;48.694;9.120;2022-10-17T05:18:30;5.10;;;3.60;;
703;SDS011;335;48.694;9.120;2022-10-17T05:20:56;4.10;;;3.77;;
703;SDS011;335;48.694;9.120;2022-10-17T05:23:21;2.97;;;2.83;;
703;SDS011;335;48.694;9.120;2022-10-17T05:25:47;6.20;;;4.03;;
703;SDS011;335;48.694;9.120;2022-10-17T05:28:12;4.10;;;3.70;;
703;SDS011;335;48.694;9.120;2022-10-17T05:30:37;4.70;;;3.17;;
703;SDS011;335;48.694;9.120;2022-10-17T05:33:02;4.10;;;3.30;;
703;SDS011;335;48.694;9.120;2022-10-17T05:35:28;3.77;;;3.13;;
703;SDS011;335;48.694;9.120;2022-10-17T05:37:53;3.37;;;3.17;;
703;SDS011;335;48.694;9.120;2022-10-17T05:40:19;3.17;;;2.97;;
703;SDS011;335;48.694;9.120;2022-10-17T05:42:45;3.40;;;3.10;;
703;SDS011;335;48.694;9.120;2022-10-17T05:45:11;3.03;;;2.90;;
703;SDS011;335;48.694;9.120;2022-10-17T05:47:37;3.50;;;3.30;;
703;SDS011;335;48.694;9.120;2022-10-17T05:50:02;4.43;;;3.40;;
703;SDS011;335;48.694;9.120;2022-10-17T05:52:28;3.67;;;3.47;;
703;SDS011;335;48.694;9.120;2022-10-17T05:54:53;8.60;;;3.50;;
703;SDS011;335;48.694;9.120;2022-10-17T05:57:18;3.50;;;3.30;;
703;SDS011;335;48.694;9.120;2022-10-17T05:59:44;7.20;;;3.87;;
703;SDS011;335;48.694;9.120;2022-10-17T06:02:11;3.57;;;3.37;;
703;SDS011;335;48.694;9.120;2022-10-17T06:04:36;3.73;;;3.43;;
703;SDS011;335;48.694;9.120;2022-10-17T06:07:02;4.57;;;3.40;;
703;SDS011;335;48.694;9.120;2022-10-17T06:09:27;3.33;;;3.17;;
703;SDS011;335;48.694;9.120;2022-10-17T06:11:53;7.10;;;3.73;;
703;SDS011;335;48.694;9.120;2022-10-17T06:14:18;3.83;;;3.07;;
703;SDS011;335;48.694;9.120;2022-10-17T06:16:43;3.50;;;3.17;;
703;SDS011;335;48.694;9.120;2022-10-17T06:19:09;3.73;;;3.47;;
703;SDS011;335;48.694;9.120;2022-10-17T06:21:35;5.77;;;4.30;;
703;SDS011;335;48.694;9.120;2022-10-17T06:24:02;3.40;;;3.10;;
703;SDS011;335;48.694;9.120;2022-10-17T06:26:27;3.87;;;3.57;;
703;SDS011;335;48.694;9.120;2022-10-17T06:28:53;3.90;;;3.63;;
703;SDS011;335;48.694;9.120;2022-10-17T06:31:19;5.00;;;3.40;;
703;SDS011;335;48.694;9.120;2022-10-17T06:33:44;4.20;;;3.90;;
703;SDS011;335;48.694;9.120;2022-10-17T06:36:10;3.37;;;3.13;;
703;SDS011;335;48.694;9.120;2022-10-17T06:38:37;6.93;;;4.40;;
703;SDS011;335;48.694;9.120;2022-10-17T06:41:06;7.43;;;4.50;;
703;SDS011;335;48.694;9.120;2022-10-17T06:43:37;3.60;;;3.40;;
703;SDS011;335;48.694;9.120;2022-10-17T06:46:03;4.40;;;3.93;;
703;SDS011;335;48.694;9.120;2022-10-17T06:48:29;4.63;;;3.73;;
703;SDS011;335;48.694;9.120;2022-10-17T06:50:58;4.60;;;4.20;;
703;SDS011;335;48.694;9.120;2022-10-17T06:53:26;5.13;;;3.80;;
703;SDS011;335;48.694;9.120;2022-10-17T06:55:55;4.67;;;3.20;;
703;SDS011;335;48.694;9.120;2022-10-17T06:58:25;3.57;;;3.37;;
703;SDS011;335;48.694;9.120;2022-10-17T07:01:03;3.17;;;2.87;;
703;SDS011;335;48.694;9.120;2022-10-17T07:03:30;4.23;;;3.10;;
703;SDS011;335;48.694;9.120;2022-10-17T07:05:56;5.20;;;2.80;;
703;SDS011;335;48.694;9.120;2022-10-17T07:08:21;5.33;;;3.60;;
703;SDS011;335;48.694;9.120;2022-10-17T07:10:47;4.20;;;3.80;;
703;SDS011;335;48.694;9.120;2022-10-17T07:13:12;3.17;;;2.97;;
703;SDS011;335;48.694;9.120;2022-10-17T07:15:38;5.07;;;3.30;;
703;SDS011;335;48.694;9.120;2022-10-17T07:18:04;3.20;;;3.00;;
703;SDS011;335;48.694;9.120;2022-10-17T07:20:29;4.30;;;3.30;;
703;SDS011;335;48.694;9.120;2022-10-17T07:22:55;9.30;;;3.43;;
703;SDS011;335;48.694;9.120;2022-10-17T07:25:21;8.07;;;2.80;;
703;SDS011;335;48.694;9.120;2022-10-17T07:27:50;3.33;;;2.70;;
703;SDS011;335;48.694;9.120;2022-10-17T07:30:16;8.17;;;3.07;;
703;SDS011;335;48.694;9.120;2022-10-17T07:32:42;3.33;;;3.07;;
703;SDS011;335;48.694;9.120;2022-10-17T07:35:08;3.30;;;3.10;;
703;SDS011;335;48.694;9.120;2022-10-17T07:37:34;4.93;;;2.50;;
703;SDS011;335;48.694;9.120;2022-10-17T07:40:00;3.17;;;2.77;;
703;SDS011;335;48.694;9.120;2022-10-17T07:42:25;2.60;;;2.40;;
703;SDS011;335;48.694;9.120;2022-10-17T07:44:52;2.57;;;2.37;;
703;SDS011;335;48.694;9.120;2022-10-17T07:47:17;4.67;;;2.10;;
703;SDS011;335;48.694;9.120;2022-10-17T07:49:43;2.77;;;2.40;;
703;SDS011;335;48.694;9.120;2022-10-17T07:52:12;3.80;;;2.57;;
703;SDS011;335;48.694;9.120;2022-10-17T07:54:37;3.57;;;2.50;;
703;SDS011;335;48.694;9.120;2022-10-17T07:57:03;4.37;;;2.40;;
703;SDS011;335;48.694;9.120;2022-10-17T07:59:28;4.00;;;2.50;;
703;SDS011;335;48.694;9.120;2022-10-17T08:01:54;2.10;;;1.77;;
703;SDS011;335;48.694;9.120;2022-10-17T08:04:20;2.60;;;1.90;;
703;SDS011;335;48.694;9.120;2022-10-17T08:06:45;3.63;;;2.10;;
703;SDS011;335;48.694;9.120;2022-10-17T08:09:10;5.50;;;1.60;;
703;SDS011;335;48.694;9.120;2022-10-17T08:11:36;5.43;;;2.00;;
703;SDS011;335;48.694;9.120;2022-10-17T08:14:01;3.30;;;2.27;;
703;SDS011;335;48.694;9.120;2022-10-17T08:16:27;3.67;;;1.70;;
703;SDS011;335;48.694;9.120;2022-10-17T08:18:52;2.10;;;1.73;;
703;SDS011;335;48.694;9.120;2022-10-17T08:21:18;2.27;;;1.90;;
703;SDS011;335;48.694;9.120;2022-10-17T08:23:43;1.80;;;1.70;;
703;SDS011;335;48.694;9.120;2022-10-17T08:26:08;6.90;;;2.30;;
703;SDS011;335;48.694;9.120;2022-10-17T08:28:37;4.53;;;1.87;;
703;SDS011;335;48.694;9.120;2022-10-17T08:31:04;6.30;;;1.67;;
703;SDS011;335;48.694;9.120;2022-10-17T08:33:30;4.73;;;1.50;;
703;SDS011;335;48.694;9.120;2022-10-17T08:35:57;1.77;;;1.60;;
703;SDS011;335;48.694;9.120;2022-10-17T08:38:24;2.30;;;1.60;;
703;SDS011;335;48.694;9.120;2022-10-17T08:40:50;1.20;;;1.20;;
703;SDS011;335;48.694;9.120;2022-10-17T08:43:27;2.90;;;1.60;;
703;SDS011;335;48.694;9.120;2022-10-17T08:46:13;3.73;;;1.63;;
703;SDS011;335;48.694;9.120;2022-10-17T08:48:39;2.70;;;1.37;;
703;SDS011;335;48.694;9.120;2022-10-17T08:51:12;1.53;;;1.17;;
703;SDS011;335;48.694;9.120;2022-10-17T08:56:20;3.23;;;1.40;;
703;SDS011;335;48.694;9.120;2022-10-17T08:58:47;1.13;;;1.13;;
703;SDS011;335;48.694;9.120;2022-10-17T09:01:23;0.93;;;0.93;;
703;SDS011;335;48.694;9.120;2022-10-17T09:06:43;1.50;;;1.30;;
703;SDS011;335;48.694;9.120;2022-10-17T09:12:14;1.23;;;1.23;;
703;SDS011;335;48.694;9.120;2022-10-17T09:17:34;2.50;;;1.23;;
703;SDS011;335;48.694;9.120;2022-10-17T09:20:09;1.47;;;1.30;;
703;SDS011;335;48.694;9.120;2022-10-17T09:22:40;5.87;;;1.33;;
703;SDS011;335;48.694;9.120;2022-10-17T09:25:12;4.80;;;1.40;;
703;SDS011;335;48.694;9.120;2022-10-17T09:27:41;1.47;;;1.37;;
703;SDS011;335;48.694;9.120;2022-10-17T09:32:50;1.57;;;1.43;;
703;SDS011;335;48.694;9.120;2022-10-17T09:35:16;1.90;;;1.30;;
703;SDS011;335;48.694;9.120;2022-10-17T09:37:41;3.90;;;1.43;;
703;SDS011;335;48.694;9.120;2022-10-17T09:40:10;1.90;;;1.33;;
703;SDS011;335;48.694;9.120;2022-10-17T09:42:40;1.33;;;1.23;;
703;SDS011;335;48.694;9.120;2022-10-17T09:45:15;2.13;;;1.40;;
703;SDS011;335;48.694;9.120;2022-10-17T09:50:22;3.07;;;1.57;;
703;SDS011;335;48.694;9.120;2022-10-17T09:52:53;1.50;;;1.40;;
703;SDS011;335;48.694;9.120;2022-10-17T09:55:21;1.50;;;1.40;;
703;SDS011;335;48.694;9.120;2022-10-17T09:57:55;1.80;;;1.70;;
703;SDS011;335;48.694;9.120;2022-10-17T10:00:29;1.50;;;1.40;;
703;SDS011;335;48.694;9.120;2022-10-17T10:06:01;1.20;;;1.00;;
703;SDS011;335;48.694;9.120;2022-10-17T10:08:31;1.90;;;1.20;;
703;SDS011;335;48.694;9.120;2022-10-17T10:11:05;2.70;;;1.30;;
703;SDS011;335;48.694;9.120;2022-10-17T10:13:32;1.80;;;1.70;;
703;SDS011;335;48.694;9.120;2022-10-17T10:16:20;0.90;;;0.90;;
703;SDS011;335;48.694;9.120;2022-10-17T10:18:50;1.50;;;1.40;;
703;SDS011;335;48.694;9.120;2022-10-17T10:21:17;1.40;;;1.27;;
703;SDS011;335;48.694;9.120;2022-10-17T10:23:47;3.27;;;1.30;;
703;SDS011;335;48.694;9.120;2022-10-17T10:26:27;1.50;;;1.40;;
703;SDS011;335;48.694;9.120;2022-10-17T10:28:57;3.90;;;1.30;;
703;SDS011;335;48.694;9.120;2022-10-17T10:31:29;3.40;;;1.10;;
703;SDS011;335;48.694;9.120;2022-10-17T10:33:57;1.13;;;1.13;;
703;SDS011;335;48.694;9.120;2022-10-17T10:36:23;1.47;;;1.37;;
703;SDS011;335;48.694;9.120;2022-10-17T10:38:53;1.50;;;1.40;;
703;SDS011;335;48.694;9.120;2022-10-17T10:41:19;2.37;;;2.27;;
703;SDS011;335;48.694;9.120;2022-10-17T10:43:46;2.13;;;2.03;;
703;SDS011;335;48.694;9.120;2022-10-17T10:46:17;2.30;;;2.20;;
703;SDS011;335;48.694;9.120;2022-10-17T10:48:56;3.97;;;1.80;;
703;SDS011;335;48.694;9.120;2022-10-17T10:54:13;3.13;;;1.50;;
703;SDS011;335;48.694;9.120;2022-10-17T10:56:45;1.67;;;1.37;;
703;SDS011;335;48.694;9.120;2022-10-17T10:59:13;2.23;;;1.20;;
703;SDS011;335;48.694;9.120;2022-10-17T11:01:53;1.63;;;1.10;;
703;SDS011;335;48.694;9.120;2022-10-17T11:04:25;2.90;;;1.10;;
703;SDS011;335;48.694;9.120;2022-10-17T11:06:51;3.07;;;1.53;;
703;SDS011;335;48.694;9.120;2022-10-17T11:09:29;1.30;;;1.20;;
703;SDS011;335;48.694;9.120;2022-10-17T11:12:00;2.40;;;1.50;;
703;SDS011;335;48.694;9.120;2022-10-17T11:14:44;2.50;;;1.30;;
703;SDS011;335;48.694;9.120;2022-10-17T11:19:48;2.40;;;1.00;;
703;SDS011;335;48.694;9.120;2022-10-17T11:22:33;3.77;;;1.20;;
703;SDS011;335;48.694;9.120;2022-10-17T11:25:04;3.83;;;1.20;;
703;SDS011;335;48.694;9.120;2022-10-17T11:27:33;1.80;;;1.70;;
703;SDS011;335;48.694;9.120;2022-10-17T11:29:59;1.90;;;1.47;;
703;SDS011;335;48.694;9.120;2022-10-17T11:32:27;3.23;;;1.20;;
703;SDS011;335;48.694;9.120;2022-10-17T11:35:02;1.80;;;1.10;;
703;SDS011;335;48.694;9.120;2022-10-17T11:37:34;1.90;;;1.37;;
703;SDS011;335;48.694;9.120;2022-10-17T11:40:07;1.53;;;1.33;;
703;SDS011;335;48.694;9.120;2022-10-17T11:42:55;2.47;;;1.40;;
703;SDS011;335;48.694;9.120;2022-10-17T11:45:24;2.30;;;1.43;;
703;SDS011;335;48.694;9.120;2022-10-17T11:47:53;6.43;;;1.90;;
703;SDS011;335;48.694;9.120;2022-10-17T11:50:30;4.13;;;1.60;;
703;SDS011;335;48.694;9.120;2022-10-17T11:53:05;2.20;;;1.17;;
703;SDS011;335;48.694;9.120;2022-10-17T11:55:34;1.50;;;1.27;;
703;SDS011;335;48.694;9.120;2022-10-17T11:58:05;2.30;;;1.13;;
703;SDS011;335;48.694;9.120;2022-10-17T12:00:51;1.93;;;1.40;;
703;SDS011;335;48.694;9.120;2022-10-17T12:03:51;2.43;;;1.70;;
703;SDS011;335;48.694;9.120;2022-10-17T12:12:02;3.37;;;1.30;;
703;SDS011;335;48.694;9.120;2022-10-17T12:14:46;2.40;;;1.10;;
703;SDS011;335;48.694;9.120;2022-10-17T12:17:28;2.00;;;1.40;;
703;SDS011;335;48.694;9.120;2022-10-17T12:22:50;1.90;;;1.20;;
703;SDS011;335;48.694;9.120;2022-10-17T12:25:27;1.40;;;1.30;;
703;SDS011;335;48.694;9.120;2022-10-17T12:28:28;3.63;;;1.37;;
703;SDS011;335;48.694;9.120;2022-10-17T12:31:04;1.57;;;1.10;;
703;SDS011;335;48.694;9.120;2022-10-17T12:34:04;1.73;;;1.13;;
703;SDS011;335;48.694;9.120;2022-10-17T12:46:45;3.80;;;1.10;;
703;SDS011;335;48.694;9.120;2022-10-17T12:57:34;3.37;;;3.07;;
703;SDS011;335;48.694;9.120;2022-10-17T13:03:04;2.77;;;2.67;;
703;SDS011;335;48.694;9.120;2022-10-17T13:05:33;4.13;;;2.67;;
703;SDS011;335;48.694;9.120;2022-10-17T13:08:01;2.10;;;2.00;;
703;SDS011;335;48.694;9.120;2022-10-17T13:10:29;2.77;;;1.70;;
703;SDS011;335;48.694;9.120;2022-10-17T13:13:00;4.80;;;2.70;;
703;SDS011;335;48.694;9.120;2022-10-17T13:15:32;3.30;;;3.00;;
703;SDS011;335;48.694;9.120;2022-10-17T13:17:59;1.40;;;1.00;;
703;SDS011;335;48.694;9.120;2022-10-17T13:20:26;2.80;;;2.53;;
703;SDS011;335;48.694;9.120;2022-10-17T13:22:52;2.90;;;2.63;;
703;SDS011;335;48.694;9.120;2022-10-17T13:25:20;2.40;;;2.30;;
703;SDS011;335;48.694;9.120;2022-10-17T13:27:46;2.30;;;2.20;;
703;SDS011;335;48.694;9.120;2022-10-17T13:30:23;2.77;;;2.57;;
703;SDS011;335;48.694;9.120;2022-10-17T13:32:52;2.77;;;2.67;;
703;SDS011;335;48.694;9.120;2022-10-17T13:35:23;2.60;;;2.13;;
703;SDS011;335;48.694;9.120;2022-10-17T13:37:51;3.10;;;2.90;;
703;SDS011;335;48.694;9.120;2022-10-17T13:40:21;3.50;;;2.80;;
703;SDS011;335;48.694;9.120;2022-10-17T13:42:48;2.93;;;2.73;;
703;SDS011;335;48.694;9.120;2022-10-17T13:47:53;4.00;;;3.10;;
703;SDS011;335;48.694;9.120;2022-10-17T13:50:40;3.00;;;2.80;;
703;SDS011;335;48.694;9.120;2022-10-17T13:53:50;4.40;;;2.53;;
703;SDS011;335;48.694;9.120;2022-10-17T13:55:57;2.53;;;2.43;;
703;SDS011;335;48.694;9.120;2022-10-17T13:58:24;2.60;;;2.40;;
703;SDS011;335;48.694;9.120;2022-10-17T14:00:50;2.63;;;2.53;;
703;SDS011;335;48.694;9.120;2022-10-17T14:03:20;3.40;;;2.80;;
703;SDS011;335;48.694;9.120;2022-10-17T14:08:27;2.63;;;2.50;;
703;SDS011;335;48.694;9.120;2022-10-17T14:10:52;2.67;;;2.47;;
703;SDS011;335;48.694;9.120;2022-10-17T14:13:22;3.40;;;3.17;;
703;SDS011;335;48.694;9.120;2022-10-17T14:15:48;2.60;;;2.40;;
703;SDS011;335;48.694;9.120;2022-10-17T14:18:19;3.10;;;2.83;;
703;SDS011;335;48.694;9.120;2022-10-17T14:20:48;2.60;;;2.40;;
703;SDS011;335;48.694;9.120;2022-10-17T14:28:35;2.23;;;2.13;;
703;SDS011;335;48.694;9.120;2022-10-17T14:31:18;2.60;;;2.40;;
703;SDS011;335;48.694;9.120;2022-10-17T14:33:46;2.50;;;2.10;;
703;SDS011;335;48.694;9.120;2022-10-17T14:36:13;2.90;;;2.57;;
703;SDS011;335;48.694;9.120;2022-10-17T14:38:42;2.03;;;1.90;;
703;SDS011;335;48.694;9.120;2022-10-17T14:41:14;2.93;;;2.70;;
703;SDS011;335;48.694;9.120;2022-10-17T14:43:43;2.40;;;2.30;;
703;SDS011;335;48.694;9.120;2022-10-17T14:46:14;3.93;;;2.60;;
703;SDS011;335;48.694;9.120;2022-10-17T14:48:40;2.77;;;2.23;;
703;SDS011;335;48.694;9.120;2022-10-17T14:51:10;2.20;;;2.10;;
703;SDS011;335;48.694;9.120;2022-10-17T14:53:38;3.93;;;2.43;;
703;SDS011;335;48.694;9.120;2022-10-17T14:56:17;2.33;;;2.13;;
703;SDS011;335;48.694;9.120;2022-10-17T14:58:45;3.60;;;2.03;;
703;SDS011;335;48.694;9.120;2022-10-17T15:01:11;3.40;;;2.23;;
703;SDS011;335;48.694;9.120;2022-10-17T15:03:36;2.43;;;1.90;;
703;SDS011;335;48.694;9.120;2022-10-17T15:06:08;2.97;;;2.80;;
703;SDS011;335;48.694;9.120;2022-10-17T15:08:44;2.23;;;2.13;;
703;SDS011;335;48.694;9.120;2022-10-17T15:11:10;2.10;;;1.90;;
703;SDS011;335;48.694;9.120;2022-10-17T15:13:35;3.50;;;2.40;;
703;SDS011;335;48.694;9.120;2022-10-17T15:16:01;2.87;;;1.90;;
703;SDS011;335;48.694;9.120;2022-10-17T15:18:26;1.93;;;1.83;;
703;SDS011;335;48.694;9.120;2022-10-17T15:20:51;3.50;;;2.37;;
703;SDS011;335;48.694;9.120;2022-10-17T15:23:17;2.37;;;2.20;;
703;SDS011;335;48.694;9.120;2022-10-17T15:25:42;4.10;;;2.37;;
703;SDS011;335;48.694;9.120;2022-10-17T15:28:08;2.17;;;2.07;;
703;SDS011;335;48.694;9.120;2022-10-17T15:30:35;3.60;;;2.47;;
703;SDS011;335;48.694;9.120;2022-10-17T15:33:01;2.43;;;2.30;;
703;SDS011;335;48.694;9.120;2022-10-17T15:35:26;4.17;;;2.77;;
703;SDS011;335;48.694;9.120;2022-10-17T15:37:52;2.60;;;1.77;;
703;SDS011;335;48.694;9.120;2022-10-17T15:40:19;4.20;;;2.23;;
703;SDS011;335;48.694;9.120;2022-10-17T15:42:46;2.33;;;2.13;;
703;SDS011;335;48.694;9.120;2022-10-17T15:45:12;2.63;;;2.37;;
703;SDS011;335;48.694;9.120;2022-10-17T15:47:49;2.43;;;2.23;;
703;SDS011;335;48.694;9.120;2022-10-17T15:50:15;4.30;;;2.20;;
703;SDS011;335;48.694;9.120;2022-10-17T15:52:41;2.00;;;1.80;;
703;SDS011;335;48.694;9.120;2022-10-17T15:55:07;2.70;;;2.50;;
703;SDS011;335;48.694;9.120;2022-10-17T15:57:35;2.43;;;2.30;;
703;SDS011;335;48.694;9.120;2022-10-17T16:00:04;2.27;;;1.90;;
703;SDS011;335;48.694;9.120;2022-10-17T16:02:31;2.43;;;2.30;;
703;SDS011;335;48.694;9.120;2022-10-17T16:04:57;2.17;;;2.00;;
703;SDS011;335;48.694;9.120;2022-10-17T16:07:23;2.17;;;2.07;;
703;SDS011;335;48.694;9.120;2022-10-17T16:09:48;2.87;;;2.50;;
703;SDS011;335;48.694;9.120;2022-10-17T16:12:17;3.30;;;2.93;;
703;SDS011;335;48.694;9.120;2022-10-17T16:14:46;2.23;;;2.13;;
703;SDS011;335;48.694;9.120;2022-10-17T16:17:12;4.47;;;2.50;;
703;SDS011;335;48.694;9.120;2022-10-17T16:19:39;2.23;;;2.13;;
703;SDS011;335;48.694;9.120;2022-10-17T16:22:04;2.50;;;2.30;;
703;SDS011;335;48.694;9.120;2022-10-17T16:24:30;2.67;;;2.33;;
703;SDS011;335;48.694;9.120;2022-10-17T16:26:56;2.63;;;2.30;;
703;SDS011;335;48.694;9.120;2022-10-17T16:29:21;3.93;;;2.87;;
703;SDS011;335;48.694;9.120;2022-10-17T16:31:46;2.50;;;2.40;;
703;SDS011;335;48.694;9.120;2022-10-17T16:34:12;2.47;;;2.27;;
703;SDS011;335;48.694;9.120;2022-10-17T16:36:38;2.63;;;2.10;;
703;SDS011;335;48.694;9.120;2022-10-17T16:39:04;2.20;;;2.00;;
703;SDS011;335;48.694;9.120;2022-10-17T16:41:30;4.77;;;2.70;;
703;SDS011;335;48.694;9.120;2022-10-17T16:43:58;4.37;;;3.90;;
703;SDS011;335;48.694;9.120;2022-10-17T16:46:25;6.40;;;4.53;;
703;SDS011;335;48.694;9.120;2022-10-17T16:48:51;10.53;;;4.80;;
703;SDS011;335;48.694;9.120;2022-10-17T16:51:18;20.60;;;6.70;;
703;SDS011;335;48.694;9.120;2022-10-17T16:53:47;9.10;;;6.87;;
703;SDS011;335;48.694;9.120;2022-10-17T16:56:18;12.47;;;7.00;;
703;SDS011;335;48.694;9.120;2022-10-17T16:58:45;5.10;;;4.43;;
703;SDS011;335;48.694;9.120;2022-10-17T17:01:12;2.90;;;2.60;;
703;SDS011;335;48.694;9.120;2022-10-17T17:03:39;2.50;;;2.40;;
703;SDS011;335;48.694;9.120;2022-10-17T17:06:06;2.73;;;2.53;;
703;SDS011;335;48.694;9.120;2022-10-17T17:08:33;3.23;;;2.93;;
703;SDS011;335;48.694;9.120;2022-10-17T17:10:59;2.40;;;2.20;;
703;SDS011;335;48.694;9.120;2022-10-17T17:13:24;2.67;;;2.50;;
703;SDS011;335;48.694;9.120;2022-10-17T17:15:50;3.07;;;2.77;;
703;SDS011;335;48.694;9.120;2022-10-17T17:18:20;3.20;;;2.83;;
703;SDS011;335;48.694;9.120;2022-10-17T17:20:45;2.67;;;2.47;;
703;SDS011;335;48.694;9.120;2022-10-17T17:23:11;2.53;;;2.33;;
703;SDS011;335;48.694;9.120;2022-10-17T17:25:37;3.63;;;2.67;;
703;SDS011;335;48.694;9.120;2022-10-17T17:28:03;2.60;;;2.40;;